Spriggs Payne Airport

Jump to: basic info | weather | frequencies | runways | comments

Related pages: nearby airports | nearby navaids | notams | map

Basic information (top)

Codes: MLW GLMR
Location: lon 6.289060, lat -10.758700, elev 25 ft / 8 m msl
Status: medium_airport
Scheduled airline service: yes
Links: Wikipedia Mobile

Weather (top)

Current conditions for Roberts International Airport 24nm (44km) E (rec'd 2014/07/28 15:30Z):

GLRB 281530Z 17006KT 9999 BKN013 FEW024 CB 25/24 Q1013 RMK CB-SE

Airport forecast for Roberts International Airport 24nm (44km) E (rec'd 2014/07/28 12:51Z):

TAF TAF GLRB 281000Z 2812/2918 24012KT 6000 RA SCT005 BKN012 
      BECMG 2814/2816 22009KT 7000 RA/RADZ SCT006 BKN014 
      TEMPO 2817/2823 17005KT 9000 
      BECMG 2900/2902 00000KT 8000

Frequencies (top)

Verify before use: may be inaccurate or out of date.

APP: 124.5 MHz (ROBERTS APP)
TWR: 118.7 MHz (SPRIGGS TWR)

Runways (top)

05/23: 6,000 x 100 ft (1,829 x 30 m) — paved — lighted — threshold 05 displaced 200 ft (61 m) — threshold 23 displaced 200 ft (61 m)

Latest comments (top)

No comments yet for Spriggs Payne Airport

More... (top)

See also NOTAMs and nearby airports and navaids, or visit the Spriggs Payne Airport page at the main OurAirports website..